Golden Valley, AZ (86413)

9:08 AM MST on July 30, 2016 (GMT -0700)
nielsen way | | Change Station
Active Advisory: Areal Flood Warning Active Notice: Local Storm Report

Elev 2772 ft 35.22 °N, 114.26 °W | Updated 21 seconds ago

Clear
Clear
90.1 °F
Feels Like 92 °F
N
3.2
Wind Variable Wind from East

Today
High -- | Low -- °F
--% Chance of Precip.
Yesterday
High -- | Low -- °F
Precip. -- in
Pressure 29.81 in
Visibility 10.0 miles
Clouds Clear
Heat Index 92 °F
Dew Point 65 °F
Humidity 44%
Rainfall 0.62 in
Snow Depth Not available.
5:45 AM 7:41 PM
Waning Crescent, 12% visible
METAR KIGM 301551Z AUTO 23017KT 10SM CLR 27/16 A3005 RMK AO2 SLP093 T02720156
Pressure 29.81 in
Visibility 10.0 miles
Clouds Clear
Heat Index 92 °F
Dew Point 65 °F
Humidity 44%
Rainfall 0.62 in
Snow Depth Not available.
5:45 AM 7:41 PM
Waning Crescent, 12% visible
METAR KIGM 301551Z AUTO 23017KT 10SM CLR 27/16 A3005 RMK AO2 SLP093 T02720156

10-Day Weather Forecast

Almanac

Astronomy

Jul. 30, 2016 Rise Set
Actual Time
Civil Twilight
Nautical Twilight
Astronomical Twilight
Moon
Length of Visible Light
Length of Day
Tomorrow will be .
, % of the Moon is Illuminated

Today's Extremes

State Highs State Lows

Community

WunderPhotos

Upload Photos

1,928,592 photos uploaded!

WunderBlog® & News

Nearby

Air Quality

  Air Quality AQ Index Pollutant
Not available.

Snow Depth

Station Depth Elevation

Earthquake Activity

City Distance Mag. Time & Date
Minimum magnitude displayed is 2.5.

Coastal Water Temperatures

Place Temperature

Stations

Nearby Weather Stations

Station Location Temp. Windchill Dew Point Humidity Wind Precip. Elev Updated Type
                   

Watches & Warnings

Areal Flood Warning
Issued: 7:43 AM MDT Jul. 30, 2016 – National Weather Service

... A Flood Warning remains in effect until 215 PM MST Saturday for
southwestern Mohave County...

Runoff from heavy rain which fell last night in the Golden Valley
area is still expected to cause flooding along the Sacramento wash.

Flood waters are moving down the Sacramento wash from Yucca to
Topock. The flood crest is expected to reach State Route
66... also known as the Oatman-Topock Highway by late this morning.

Turn around... don't drown when encountering flooded roads. Most
flood deaths occur in vehicles.

Precautionary/preparedness actions...


Lat... Lon 3475 11452 3476 11429 3480 11422 3512 11435
      3512 11412 3488 11416 3481 11415 3476 11421
      3474 11425 3472 11449


Jh